Time;durP1;ratioP1;P1;durP2;ratioP2;P2;SDS_P1;SDS_P2;PMS_P1;PMS_P2;Temp;Humidity;BMP_temperature;BMP_pressure;BME280_temperature;BME280_humidity;BME280_pressure;Samples;Min_cycle;Max_cycle;Signal;HPM_P1;HPM_P2
2023/03/06 00:05:32;;;;;;;24.53;17.37;;;;;;;1.64;62.59;99740.72;20467501;29;20223;-80
2023/03/06 00:15:34;;;;;;;21.73;15.47;;;;;;;1.57;62.54;99736.63;20463009;29;20259;-80
2023/03/06 00:25:37;;;;;;;18.83;14.80;;;;;;;1.65;62.03;99725.66;20459696;29;20215;-80
2023/03/06 00:35:40;;;;;;;18.57;13.40;;;;;;;1.49;62.99;99713.09;20456797;29;20211;-81
2023/03/06 00:45:42;;;;;;;20.80;13.57;;;;;;;1.49;62.38;99704.72;20466714;29;20223;-80
2023/03/06 00:55:44;;;;;;;17.67;13.20;;;;;;;1.17;63.69;99685.88;20475092;29;20226;-80
2023/03/06 01:05:46;;;;;;;17.97;13.53;;;;;;;1.56;62.51;99674.59;20458163;29;20230;-80
2023/03/06 01:15:49;;;;;;;17.17;14.23;;;;;;;1.68;61.96;99669.41;20457665;29;20227;-80
2023/03/06 01:25:51;;;;;;;19.17;15.47;;;;;;;1.43;63.13;99660.59;20488649;29;20231;-80
2023/03/06 01:35:54;;;;;;;19.13;14.33;;;;;;;1.71;62.44;99643.78;20469550;28;20207;-81
2023/03/06 01:46:17;;;;;;;20.53;15.00;;;;;;;1.71;62.53;99645.72;20485990;29;20620;-80
2023/03/06 01:56:19;;;;;;;19.83;15.30;;;;;;;1.84;61.55;99635.81;20456029;29;20199;-80
2023/03/06 02:06:22;;;;;;;18.90;15.10;;;;;;;1.94;60.47;99618.94;20492215;28;20223;-81
2023/03/06 02:16:27;;;;;;;16.53;13.90;;;;;;;1.72;60.96;99612.06;20488443;29;20282;-81
2023/03/06 02:26:30;;;;;;;17.37;14.23;;;;;;;1.92;60.13;99610.06;20472755;29;20283;-81
2023/03/06 02:36:37;;;;;;;22.87;15.77;;;;;;;1.39;61.48;99596.38;20443362;29;20195;-81
2023/03/06 02:46:41;;;;;;;22.43;15.90;;;;;;;1.99;60.97;99582.69;20460217;29;20223;-82
2023/03/06 02:56:44;;;;;;;19.00;14.83;;;;;;;1.86;60.41;99572.34;20482920;29;20203;-81
2023/03/06 03:06:46;;;;;;;18.73;13.50;;;;;;;1.59;60.89;99562.72;20440868;29;20250;-82
2023/03/06 03:16:49;;;;;;;17.30;14.00;;;;;;;1.12;62.54;99562.81;20483047;28;20228;-81
2023/03/06 03:26:51;;;;;;;19.40;15.03;;;;;;;1.04;62.17;99556.78;20473671;29;20218;-81
2023/03/06 03:36:56;;;;;;;19.97;14.17;;;;;;;1.39;61.38;99537.97;20456085;29;20660;-80
2023/03/06 03:46:58;;;;;;;19.17;13.97;;;;;;;1.14;62.33;99543.88;20466224;29;20220;-80
2023/03/06 03:57:01;;;;;;;17.33;13.73;;;;;;;1.55;60.18;99531.06;20461095;29;20512;-81
2023/03/06 04:07:08;;;;;;;20.00;14.33;;;;;;;1.51;60.94;99527.25;20472575;29;20227;-81
2023/03/06 04:17:11;;;;;;;21.10;15.83;;;;;;;0.95;62.37;99525.22;20466276;29;20274;-81
2023/03/06 04:27:13;;;;;;;19.83;15.83;;;;;;;1.75;60.76;99516.03;20488771;29;20203;-81
2023/03/06 04:37:21;;;;;;;19.57;15.97;;;;;;;1.36;61.57;99502.44;20447691;29;20503;-80
2023/03/06 04:47:23;;;;;;;20.23;15.40;;;;;;;1.74;60.85;99481.81;20470900;29;20281;-81
2023/03/06 04:57:25;;;;;;;23.00;18.53;;;;;;;1.03;62.55;99482.88;20448614;29;20259;-80
2023/03/06 05:07:27;;;;;;;21.07;17.23;;;;;;;1.36;61.29;99478.25;20474455;29;20266;-81
2023/03/06 05:17:30;;;;;;;19.57;13.40;;;;;;;0.74;62.05;99479.38;20500298;29;20263;-80
2023/03/06 05:27:32;;;;;;;9.73;8.47;;;;;;;1.12;58.87;99471.09;20480227;29;20199;-80
2023/03/06 05:37:34;;;;;;;10.27;8.70;;;;;;;1.05;58.66;99479.78;20478131;29;20200;-79
2023/03/06 05:47:36;;;;;;;10.80;8.57;;;;;;;1.63;57.27;99465.59;20487670;28;20208;-79
2023/03/06 05:57:38;;;;;;;15.13;11.30;;;;;;;1.17;58.38;99459.88;20480921;29;20200;-79
2023/03/06 06:07:41;;;;;;;22.63;15.00;;;;;;;1.28;58.28;99464.19;20473581;28;20616;-79
2023/03/06 06:17:43;;;;;;;25.93;17.87;;;;;;;0.75;59.70;99453.25;20475910;29;20286;-80
2023/03/06 06:27:45;;;;;;;23.50;17.27;;;;;;;1.23;58.51;99458.72;20488031;29;20521;-80
2023/03/06 06:37:47;;;;;;;27.40;16.53;;;;;;;0.75;60.28;99447.69;20483934;29;20410;-79
2023/03/06 06:47:50;;;;;;;17.97;14.17;;;;;;;1.29;58.52;99446.38;20479688;29;20246;-80
2023/03/06 06:57:52;;;;;;;22.00;14.50;;;;;;;0.74;60.39;99450.78;20506388;29;20203;-80
2023/03/06 07:07:54;;;;;;;22.23;15.57;;;;;;;1.59;57.47;99440.31;20521549;29;20191;-79
2023/03/06 07:17:56;;;;;;;23.03;14.00;;;;;;;0.92;60.03;99453.56;20476125;29;20247;-80
2023/03/06 07:27:58;;;;;;;19.53;14.13;;;;;;;1.08;58.69;99453.34;20498278;29;20539;-80
2023/03/06 07:38:00;;;;;;;20.60;14.23;;;;;;;0.93;59.34;99460.78;20451692;29;20215;-79
2023/03/06 07:48:02;;;;;;;23.43;13.97;;;;;;;1.43;58.43;99450.03;20487060;29;20196;-80
2023/03/06 07:58:07;;;;;;;23.27;14.83;;;;;;;1.09;59.45;99468.91;20468087;29;20556;-79
2023/03/06 08:08:10;;;;;;;25.13;15.60;;;;;;;0.81;60.33;99468.72;20456169;29;20252;-80
2023/03/06 08:18:12;;;;;;;34.13;17.97;;;;;;;0.60;61.86;99459.84;20466125;28;20231;-79
2023/03/06 08:28:14;;;;;;;25.40;16.43;;;;;;;1.91;56.79;99452.56;20474378;28;20231;-79
2023/03/06 08:38:16;;;;;;;23.87;16.83;;;;;;;1.16;59.27;99458.22;20476529;29;20228;-79
2023/03/06 08:48:18;;;;;;;28.70;17.67;;;;;;;0.77;60.54;99461.28;20471860;29;20564;-79
2023/03/06 08:58:20;;;;;;;21.83;14.73;;;;;;;1.13;59.32;99450.47;20445168;29;20251;-79
2023/03/06 09:08:22;;;;;;;24.40;15.90;;;;;;;1.48;60.19;99455.53;20436981;29;20188;-79
2023/03/06 09:18:24;;;;;;;22.80;15.37;;;;;;;1.27;62.88;99454.19;20451471;29;20270;-79
2023/03/06 09:28:27;;;;;;;21.17;15.20;;;;;;;0.58;64.09;99472.38;20469069;28;20203;-79
2023/03/06 09:38:29;;;;;;;18.60;14.13;;;;;;;1.18;62.92;99462.41;20459626;29;20262;-79
2023/03/06 09:48:42;;;;;;;23.93;14.13;;;;;;;0.98;64.30;99463.50;20442895;29;20220;-79
2023/03/06 09:58:50;;;;;;;20.93;14.93;;;;;;;1.91;61.75;99461.72;20480315;28;20210;-79
2023/03/06 10:08:58;;;;;;;20.47;15.07;;;;;;;1.14;63.30;99460.47;20479393;29;20621;-78
2023/03/06 10:19:09;;;;;;;21.37;15.27;;;;;;;1.64;60.28;99462.50;20474651;29;20228;-79
2023/03/06 10:29:11;;;;;;;25.20;16.47;;;;;;;1.71;60.85;99454.56;20468615;29;20222;-79
2023/03/06 10:39:19;;;;;;;23.00;16.97;;;;;;;2.48;58.99;99461.50;20492540;29;20602;-79
2023/03/06 10:49:35;;;;;;;25.30;16.57;;;;;;;1.88;62.53;99464.31;20484627;29;20196;-80
2023/03/06 10:59:50;;;;;;;16.17;12.10;;;;;;;1.83;57.25;99467.19;20483654;29;20223;-79
2023/03/06 11:09:55;;;;;;;16.07;10.17;;;;;;;1.72;57.78;99469.31;20455582;29;20261;-77
2023/03/06 11:20:13;;;;;;;10.60;7.50;;;;;;;2.18;55.03;99474.03;20461134;29;20220;-79
2023/03/06 11:30:19;;;;;;;13.80;10.07;;;;;;;2.73;54.71;99458.16;20507761;28;20199;-80
2023/03/06 11:40:35;;;;;;;11.50;8.47;;;;;;;2.33;54.54;99463.44;20461185;28;20219;-79
2023/03/06 11:50:41;;;;;;;8.60;5.90;;;;;;;1.99;56.55;99463.00;20436223;29;20199;-80
2023/03/06 12:00:56;;;;;;;7.37;5.70;;;;;;;2.43;53.17;99454.88;20456986;29;20251;-80
2023/03/06 12:11:04;;;;;;;3.57;3.10;;;;;;;2.58;50.07;99444.56;20456168;29;20219;-81
2023/03/06 12:21:34;;;;;;;5.87;4.07;;;;;;;3.63;50.33;99420.13;20467147;28;20219;-80
2023/03/06 12:31:59;;;;;;;9.80;8.07;;;;;;;3.75;48.13;99417.56;20457521;29;20240;-81
2023/03/06 12:42:15;;;;;;;11.27;9.20;;;;;;;3.94;47.46;99400.59;20432291;29;20613;-79
2023/03/06 12:52:27;;;;;;;9.47;6.77;;;;;;;3.73;44.81;99386.34;20450590;29;20224;-81
2023/03/06 13:02:38;;;;;;;9.20;7.87;;;;;;;3.44;45.58;99384.88;20506957;29;20211;-79
2023/03/06 13:12:48;;;;;;;7.43;6.10;;;;;;;2.47;46.57;99393.81;20482425;28;20227;-80
2023/03/06 13:22:50;;;;;;;10.60;7.50;;;;;;;3.51;44.54;99373.25;20515162;28;20223;-79
2023/03/06 13:32:54;;;;;;;7.87;6.60;;;;;;;3.11;45.44;99364.75;20492455;28;20589;-78
2023/03/06 13:43:02;;;;;;;7.93;6.37;;;;;;;2.90;45.93;99374.78;20525815;28;20219;-79
2023/03/06 13:53:23;;;;;;;8.10;6.70;;;;;;;2.62;44.59;99367.59;20470673;28;20492;-78
2023/03/06 14:04:03;;;;;;;10.33;7.57;;;;;;;3.19;46.72;99352.03;20480928;28;20211;-78
2023/03/06 14:14:08;;;;;;;7.40;5.90;;;;;;;3.47;41.91;99338.75;20480350;29;20436;-79
2023/03/06 14:24:15;;;;;;;7.07;5.80;;;;;;;3.27;43.33;99333.72;20483194;28;20216;-80
2023/03/06 14:34:21;;;;;;;7.50;5.73;;;;;;;3.94;40.94;99328.00;20484804;28;20490;-79
2023/03/06 14:44:25;;;;;;;8.93;6.17;;;;;;;4.53;38.41;99309.78;20472890;28;20688;-80
2023/03/06 14:54:31;;;;;;;4.33;2.93;;;;;;;3.77;42.26;99312.81;20494579;29;20200;-78
2023/03/06 15:04:39;;;;;;;2.50;2.30;;;;;;;3.57;39.22;99299.44;20494398;28;20523;-78
2023/03/06 15:14:56;;;;;;;2.30;2.10;;;;;;;3.50;41.08;99304.63;20470380;29;20270;-80
2023/03/06 15:25:18;;;;;;;4.67;1.70;;;;;;;4.33;40.01;99293.66;20480757;29;20611;-80
2023/03/06 15:35:30;;;;;;;1.70;1.60;;;;;;;3.61;41.33;99286.47;20480535;28;20207;-80
2023/03/06 15:45:33;;;;;;;1.90;1.53;;;;;;;3.97;41.61;99277.09;20451361;29;20222;-81
2023/03/06 15:55:36;;;;;;;9.53;7.53;;;;;;;3.64;45.66;99265.47;20457367;29;20192;-79
2023/03/06 16:05:38;;;;;;;10.03;7.63;;;;;;;3.85;46.28;99266.56;20443786;29;20235;-82
2023/03/06 16:15:46;;;;;;;13.10;8.60;;;;;;;2.94;50.39;99258.72;20459262;28;20258;-78
2023/03/06 16:25:48;;;;;;;14.80;10.60;;;;;;;2.80;50.98;99263.53;20471184;29;20227;-79
2023/03/06 16:35:51;;;;;;;15.60;10.07;;;;;;;2.56;52.77;99274.91;20451964;29;20195;-80
2023/03/06 16:45:53;;;;;;;12.73;9.47;;;;;;;1.91;56.50;99280.00;20444572;29;20259;-79
2023/03/06 16:55:55;;;;;;;14.30;8.87;;;;;;;2.37;53.89;99266.75;20451812;29;20199;-80
2023/03/06 17:05:57;;;;;;;13.83;10.03;;;;;;;2.99;53.57;99250.19;20470914;28;20223;-80
2023/03/06 17:16:00;;;;;;;13.90;10.63;;;;;;;2.89;52.80;99249.66;20458830;29;20219;-80
2023/03/06 17:26:11;;;;;;;14.10;10.67;;;;;;;3.06;52.41;99236.66;20472876;29;20219;-78
2023/03/06 17:36:14;;;;;;;17.63;11.97;;;;;;;2.92;52.11;99249.84;20474433;28;20308;-81
2023/03/06 17:46:17;;;;;;;18.47;12.90;;;;;;;2.17;54.36;99253.25;20465459;29;20219;-79
2023/03/06 17:56:19;;;;;;;18.23;13.27;;;;;;;2.84;53.47;99244.19;20462059;29;20223;-80
2023/03/06 18:06:22;;;;;;;32.50;20.57;;;;;;;2.35;55.52;99249.50;20463131;29;20250;-78
2023/03/06 18:16:25;;;;;;;19.23;13.47;;;;;;;2.32;55.43;99241.78;20460625;28;20286;-82
2023/03/06 18:26:28;;;;;;;19.57;12.53;;;;;;;2.43;54.57;99232.03;20465572;29;20559;-81
2023/03/06 18:36:31;;;;;;;17.33;12.53;;;;;;;1.97;56.51;99225.88;20469694;29;20222;-82
2023/03/06 18:46:36;;;;;;;17.73;12.07;;;;;;;1.68;57.42;99221.47;20472469;28;20251;-81
2023/03/06 18:56:42;;;;;;;20.77;14.30;;;;;;;1.59;58.98;99206.66;20447805;29;20187;-82
2023/03/06 19:06:45;;;;;;;23.77;16.97;;;;;;;2.18;57.99;99185.31;20457009;28;20243;-81
2023/03/06 19:16:47;;;;;;;20.77;13.67;;;;;;;2.21;57.64;99173.53;20476055;29;20827;-83
2023/03/06 19:26:49;;;;;;;30.80;18.67;;;;;;;2.51;55.83;99171.16;20449588;29;20251;-81
2023/03/06 19:36:51;;;;;;;18.83;14.63;;;;;;;2.00;54.67;99156.50;20447917;28;20638;-81
2023/03/06 19:46:54;;;;;;;19.40;13.70;;;;;;;1.96;55.36;99146.31;20447951;28;20935;-79
2023/03/06 19:57:02;;;;;;;17.60;11.93;;;;;;;1.75;56.51;99151.53;21025752;28;20575;-80
2023/03/06 20:07:05;;;;;;;19.83;13.23;;;;;;;1.46;57.39;99129.63;20941020;28;20207;-79
2023/03/06 20:17:07;;;;;;;17.70;11.60;;;;;;;1.36;57.19;99115.94;20938642;28;20277;-80
2023/03/06 20:27:10;;;;;;;17.63;11.97;;;;;;;1.80;57.05;99103.25;20929794;28;20200;-81
2023/03/06 20:37:12;;;;;;;18.50;12.70;;;;;;;0.90;58.99;99096.56;20951457;28;20223;-80
2023/03/06 20:47:14;;;;;;;19.20;12.03;;;;;;;1.64;57.27;99070.25;20959780;28;20195;-80
2023/03/06 20:57:16;;;;;;;18.87;10.90;;;;;;;1.17;57.13;99060.44;20946185;28;20249;-79
2023/03/06 21:07:18;;;;;;;20.07;11.70;;;;;;;1.28;57.98;99047.97;20908271;28;20734;-79
2023/03/06 21:17:21;;;;;;;15.50;10.80;;;;;;;0.52;59.72;99045.91;20895764;28;20216;-79
2023/03/06 21:27:23;;;;;;;16.07;11.00;;;;;;;0.43;61.31;99033.88;20903008;28;20204;-79
2023/03/06 21:37:25;;;;;;;12.63;8.77;;;;;;;0.62;59.98;99020.72;20894725;28;20201;-78
2023/03/06 21:47:27;;;;;;;13.37;9.27;;;;;;;0.14;62.91;98987.78;20898090;28;20364;-79
2023/03/06 21:57:29;;;;;;;20.17;12.47;;;;;;;0.40;63.38;98990.91;20906669;28;20262;-80
2023/03/06 22:07:35;;;;;;;20.03;11.80;;;;;;;0.04;64.13;98963.00;20920066;28;20600;-78
2023/03/06 22:17:38;;;;;;;22.33;13.60;;;;;;;-0.06;65.11;98954.88;20912026;28;20203;-81
2023/03/06 22:27:40;;;;;;;20.00;13.50;;;;;;;-0.01;65.19;98934.53;20911467;28;20540;-79
2023/03/06 22:37:42;;;;;;;20.23;13.80;;;;;;;-0.21;66.55;98927.41;20871946;28;20193;-80
2023/03/06 22:47:44;;;;;;;21.33;13.83;;;;;;;-0.00;66.59;98889.00;20895265;28;20257;-80
2023/03/06 22:57:46;;;;;;;22.27;13.83;;;;;;;0.08;66.66;98877.22;20900416;28;20241;-80
2023/03/06 23:07:49;;;;;;;20.10;14.00;;;;;;;0.02;65.54;98870.94;20907244;28;20216;-79
2023/03/06 23:17:51;;;;;;;18.70;12.67;;;;;;;-0.46;67.45;98862.16;20875754;28;20266;-80
2023/03/06 23:28:12;;;;;;;16.87;11.67;;;;;;;-0.73;69.40;98849.03;20902553;28;20540;-78
2023/03/06 23:38:14;;;;;;;19.57;13.17;;;;;;;0.02;66.32;98840.41;20885409;28;20219;-79
2023/03/06 23:48:16;;;;;;;23.60;15.03;;;;;;;-0.03;67.17;98829.41;20883769;28;20232;-78
2023/03/06 23:58:18;;;;;;;19.20;12.73;;;;;;;-0.68;69.76;98837.88;20877740;28;20548;-80
